Stations météo

réclame
Mon MeteoGroup
Torino Venaria, Italie (16060): Température de l'air & dewpoint: 21.04.2018 08:00:00 - 27.04.2018 08:00:00 (CEST)Torino Venaria, Italie (16060): Vitesse du vent: 21.04.2018 08:00:00 - 27.04.2018 08:00:00 (CEST)Torino Venaria, Italie (16060): Direction du vent: 21.04.2018 08:00:00 - 27.04.2018 08:00:00 (CEST)Torino Venaria, Italie (16060): reduced air pressure: 21.04.2018 08:00:00 - 27.04.2018 08:00:00 (CEST)Torino Venaria, Italie (16060): Quantités de précipitations: 21.04.2018 08:00:00 - 27.04.2018 08:00:00 (CEST)
Date & Time tt [°C] td [°C] ff [km/h] ff [knt] dd ppp [hPa] rr [mm]
27.04.2018 08:00:00 - - - - - - -
27.04.2018 07:00:00 13,0 12,7 0 0 N 1010,6 -
27.04.2018 06:00:00 13,1 12,9 0 0 N 1010,2 -
27.04.2018 05:00:00 12,4 12,4 4 2 W 1010,2 -
27.04.2018 04:00:00 11,8 11,6 4 2 NW 1010,1 -
27.04.2018 03:00:00 11,3 11,1 4 2 W 1010,1 -
27.04.2018 02:00:00 11,7 10,1 2 1 N 1009,9 0,0
27.04.2018 01:00:00 13,9 9,9 4 2 NNW 1009,7 -
27.04.2018 00:00:00 16,3 10,8 5 3 WSW 1009,3 -
26.04.2018 23:00:00 17,4 11,2 5 3 SW 1008,8 -
26.04.2018 22:00:00 17,4 10,9 5 3 WSW 1008,6 -
26.04.2018 21:00:00 20,0 12,5 5 3 SSW 1007,3 -
26.04.2018 20:00:00 22,7 13,4 8 4 SSE 1006,4 0,0
26.04.2018 19:00:00 24,4 13,5 5 3 SW 1006,0 -
26.04.2018 18:00:00 24,6 12,5 9 5 SW 1006,0 -
26.04.2018 17:00:00 24,4 13,2 9 5 SW 1006,0 -
26.04.2018 16:00:00 24,6 14,0 5 3 WNW 1006,6 -
26.04.2018 15:00:00 23,8 13,3 5 3 S 1007,2 -
26.04.2018 14:00:00 23,0 14,2 8 4 WSW 1007,8 0,0
26.04.2018 13:00:00 21,6 14,2 8 4 WSW 1008,7 -
26.04.2018 12:00:00 20,7 13,1 5 3 WNW 1009,5 -
26.04.2018 11:00:00 19,0 12,9 5 3 SW 1010,1 -
26.04.2018 10:00:00 17,1 13,2 5 3 SSW 1010,4 -
26.04.2018 09:00:00 14,0 13,9 2 1 WNW 1010,8 -
26.04.2018 08:00:00 10,2 10,2 2 1 WNW 1011,2 0,0
26.04.2018 07:00:00 8,4 8,4 2 1 WNW 1011,1 -
26.04.2018 06:00:00 9,2 9,2 4 2 WNW 1010,8 -
26.04.2018 05:00:00 9,6 9,4 4 2 NW 1010,7 -
26.04.2018 04:00:00 10,2 9,3 8 4 W 1010,9 -
26.04.2018 03:00:00 11,4 8,8 8 4 WNW 1011,0 -
26.04.2018 02:00:00 12,5 10,2 2 1 NW 1011,5 0,0
26.04.2018 01:00:00 14,7 10,1 5 3 WNW 1011,5 -
26.04.2018 00:00:00 15,9 10,4 9 5 SSW 1011,4 -
25.04.2018 23:00:00 15,5 11,2 4 2 SW 1011,5 -
25.04.2018 22:00:00 16,8 10,8 8 4 WNW 1010,9 -
25.04.2018 21:00:00 20,2 11,9 4 2 S 1009,9 -
25.04.2018 20:00:00 22,2 13,7 5 3 SSW 1009,3 0,0
25.04.2018 19:00:00 23,7 14,3 9 5 SSW 1009,2 -
25.04.2018 18:00:00 25,0 14,4 5 3 SW 1009,4 -
25.04.2018 17:00:00 24,8 13,6 5 3 SW 1009,8 -
25.04.2018 16:00:00 24,6 14,0 8 4 SSW 1010,5 -
25.04.2018 15:00:00 24,3 14,0 8 4 SW 1011,3 -
25.04.2018 14:00:00 23,6 13,7 4 2 NE 1012,1 0,0
25.04.2018 13:00:00 22,2 12,4 5 3 E 1013,0 -
25.04.2018 12:00:00 21,1 12,7 5 3 E 1013,7 -
25.04.2018 11:00:00 19,6 12,3 4 2 WNW 1014,1 -
25.04.2018 10:00:00 17,5 13,9 2 1 NE 1014,3 -
25.04.2018 09:00:00 13,2 13,1 0 0 N 1014,7 -
25.04.2018 08:00:00 10,3 10,3 4 2 WNW 1014,9 0,0
25.04.2018 07:00:00 8,9 8,9 4 2 WNW 1014,5 -
25.04.2018 06:00:00 9,7 9,7 4 2 WNW 1014,2 -
25.04.2018 05:00:00 9,7 9,4 4 2 WNW 1014,3 -
25.04.2018 04:00:00 10,4 9,9 2 1 W 1014,4 -
25.04.2018 03:00:00 11,3 10,5 4 2 NW 1014,5 -
25.04.2018 02:00:00 11,8 10,5 4 2 NW 1014,6 0,0
25.04.2018 01:00:00 12,5 10,5 2 1 WNW 1014,5 -
25.04.2018 00:00:00 13,8 9,8 2 1 NNW 1014,6 -
24.04.2018 23:00:00 16,2 10,7 8 4 NW 1014,3 -
24.04.2018 22:00:00 18,2 10,7 5 3 NW 1013,6 -
24.04.2018 21:00:00 20,5 11,6 2 1 S 1012,7 -
24.04.2018 20:00:00 23,0 12,6 2 1 S 1012,0 0,0
24.04.2018 19:00:00 24,2 14,2 4 2 SSW 1011,9 -
24.04.2018 18:00:00 24,9 13,7 5 3 W 1012,0 -
24.04.2018 17:00:00 25,4 13,8 9 5 ENE 1012,3 -
24.04.2018 16:00:00 24,9 13,7 8 4 W 1012,9 -
24.04.2018 15:00:00 25,0 12,2 5 3 W 1013,5 -
24.04.2018 14:00:00 23,5 9,8 8 4 ENE 1014,4 0,0
24.04.2018 13:00:00 22,3 11,0 9 5 E 1015,1 -
24.04.2018 12:00:00 21,5 11,5 5 3 E 1015,3 -
24.04.2018 11:00:00 20,9 10,3 5 3 ENE 1015,0 -
24.04.2018 10:00:00 18,5 11,5 5 3 NW 1015,1 -
24.04.2018 09:00:00 14,4 14,2 0 0 N 1015,1 -
24.04.2018 08:00:00 10,4 10,4 0 0 N 1015,0 0,0
24.04.2018 07:00:00 8,4 7,0 2 1 WNW 1014,6 -
24.04.2018 06:00:00 8,7 6,5 5 3 NW 1014,3 -
24.04.2018 05:00:00 9,5 7,6 4 2 NW 1014,0 -
24.04.2018 04:00:00 10,7 8,9 4 2 NW 1013,7 -
24.04.2018 03:00:00 10,9 7,9 4 2 WNW 1013,4 -
24.04.2018 02:00:00 12,7 9,7 0 0 N 1013,4 0,0
24.04.2018 01:00:00 13,8 10,6 4 2 NW 1013,5 -
24.04.2018 00:00:00 14,3 9,9 4 2 WNW 1013,4 -
23.04.2018 23:00:00 15,8 10,7 2 1 W 1013,3 -
23.04.2018 22:00:00 17,7 11,2 8 4 W 1012,6 -
23.04.2018 21:00:00 20,0 10,6 2 1 ESE 1011,8 -
23.04.2018 20:00:00 22,3 10,4 5 3 SW 1011,2 0,0
23.04.2018 19:00:00 24,1 13,2 8 4 SW 1011,1 -
23.04.2018 18:00:00 25,4 12,2 4 2 S 1011,1 -
23.04.2018 17:00:00 25,8 12,6 5 3 N 1011,1 -
23.04.2018 16:00:00 25,6 12,1 8 4 SSE 1011,7 -
23.04.2018 15:00:00 24,8 11,7 4 2 NE 1012,5 -
23.04.2018 14:00:00 23,3 11,3 8 4 ENE 1013,4 0,0
23.04.2018 13:00:00 22,4 11,7 8 4 E 1014,3 -
23.04.2018 12:00:00 21,0 11,0 9 5 E 1014,8 -
23.04.2018 11:00:00 20,0 10,6 8 4 ENE 1015,3 -
23.04.2018 10:00:00 18,5 12,0 2 1 E 1015,5 -
23.04.2018 09:00:00 14,3 13,5 2 1 NW 1015,8 -
23.04.2018 08:00:00 12,1 12,1 4 2 NW 1015,9 0,0
23.04.2018 07:00:00 9,4 8,1 2 1 W 1015,8 -
23.04.2018 06:00:00 9,8 8,2 4 2 WNW 1015,8 -
23.04.2018 05:00:00 9,8 8,2 4 2 NW 1015,8 -
23.04.2018 04:00:00 10,4 7,8 4 2 WNW 1015,5 -
23.04.2018 03:00:00 11,2 8,7 4 2 NW 1015,3 -
23.04.2018 02:00:00 12,8 9,8 4 2 NW 1015,3 0,0
23.04.2018 01:00:00 12,2 8,4 2 1 W 1015,4 -
23.04.2018 00:00:00 13,5 9,1 4 2 WNW 1015,2 -
22.04.2018 23:00:00 14,9 8,8 2 1 NW 1014,9 -
22.04.2018 22:00:00 15,5 9,1 4 2 WNW 1014,2 -
22.04.2018 21:00:00 20,5 10,3 4 2 N 1013,1 -
22.04.2018 20:00:00 24,4 9,5 2 1 N 1012,2 0,0
22.04.2018 19:00:00 26,0 11,3 2 1 WNW 1011,8 -
22.04.2018 18:00:00 25,8 12,6 5 3 W 1011,9 -
22.04.2018 17:00:00 25,8 11,5 5 3 WSW 1012,1 -
22.04.2018 16:00:00 25,8 13,9 4 2 SE 1012,6 -
22.04.2018 15:00:00 25,3 12,5 4 2 E 1013,5 -
22.04.2018 14:00:00 23,7 11,4 8 4 ENE 1014,2 0,0
22.04.2018 13:00:00 22,7 12,0 8 4 ESE 1015,0 -
22.04.2018 12:00:00 21,2 11,2 5 3 ENE 1015,8 -
22.04.2018 11:00:00 19,9 10,8 5 3 ENE 1016,2 -
22.04.2018 10:00:00 18,6 11,1 4 2 E 1016,3 -
22.04.2018 09:00:00 13,8 13,3 2 1 WNW 1016,7 -
22.04.2018 08:00:00 8,8 8,5 2 1 WNW 1017,3 0,0
22.04.2018 07:00:00 7,2 4,8 4 2 WNW 1017,0 -
22.04.2018 06:00:00 7,7 4,8 5 3 WNW 1016,6 -
22.04.2018 05:00:00 8,3 4,5 4 2 NW 1016,7 -
22.04.2018 04:00:00 8,5 5,0 4 2 NW 1016,7 -
22.04.2018 03:00:00 9,0 5,5 5 3 WNW 1016,9 -
22.04.2018 02:00:00 10,0 5,5 4 2 WNW 1016,9 0,0
22.04.2018 01:00:00 10,7 5,8 5 3 WNW 1016,6 -
22.04.2018 00:00:00 12,1 5,7 2 1 NNW 1016,1 -
21.04.2018 23:00:00 13,6 6,1 4 2 NW 1015,9 -
21.04.2018 22:00:00 16,1 7,5 5 3 WNW 1015,5 -
21.04.2018 21:00:00 19,0 8,0 0 0 N 1014,7 -
21.04.2018 20:00:00 22,4 8,1 4 2 S 1013,9 0,0
21.04.2018 19:00:00 23,9 10,9 11 6 SSW 1014,0 -
21.04.2018 18:00:00 25,3 9,1 13 7 SW 1014,1 -
21.04.2018 17:00:00 26,1 10,3 11 6 SW 1014,3 -
21.04.2018 16:00:00 26,2 10,3 9 5 S 1015,0 -
21.04.2018 15:00:00 26,4 9,7 5 3 NE 1015,8 -
21.04.2018 14:00:00 25,8 10,4 5 3 W 1016,3 0,0
21.04.2018 13:00:00 25,2 11,3 4 2 WSW 1017,2 -
21.04.2018 12:00:00 23,3 9,6 4 2 SSW 1018,1 -
21.04.2018 11:00:00 21,4 10,2 4 2 WSW 1018,6 -
21.04.2018 10:00:00 18,0 10,6 2 1 W 1018,9 -
21.04.2018 09:00:00 13,1 9,3 2 1 WNW 1019,6 -
21.04.2018 08:00:00 8,1 6,5 4 2 WNW 1020,3 0,0

tt = Température de l'air
td = dewpoint
ff = Vitesse du vent
dd = Direction du vent
ppp = reduced air pressure
rr = Quantités de précipitations

stations d'obs. à proximité